sensor_id;sensor_type;location;lat;lon;timestamp;temperature;humidity
30379;DHT22;17168;49.164;9.060;2022-11-02T00:02:31;14.80;78.10
30379;DHT22;17168;49.164;9.060;2022-11-02T00:05:05;14.80;77.80
30379;DHT22;17168;49.164;9.060;2022-11-02T00:07:37;14.80;77.70
30379;DHT22;17168;49.164;9.060;2022-11-02T00:10:09;14.80;77.60
30379;DHT22;17168;49.164;9.060;2022-11-02T00:12:41;14.80;77.40
30379;DHT22;17168;49.164;9.060;2022-11-02T00:15:14;14.80;77.10
30379;DHT22;17168;49.164;9.060;2022-11-02T00:17:47;14.80;76.90
30379;DHT22;17168;49.164;9.060;2022-11-02T00:20:22;14.80;76.70
30379;DHT22;17168;49.164;9.060;2022-11-02T00:22:55;14.80;76.70
30379;DHT22;17168;49.164;9.060;2022-11-02T00:25:28;14.80;77.20
30379;DHT22;17168;49.164;9.060;2022-11-02T00:28:00;14.80;76.60
30379;DHT22;17168;49.164;9.060;2022-11-02T00:30:32;14.80;76.40
30379;DHT22;17168;49.164;9.060;2022-11-02T00:33:04;14.80;76.10
30379;DHT22;17168;49.164;9.060;2022-11-02T00:35:38;14.90;76.00
30379;DHT22;17168;49.164;9.060;2022-11-02T00:38:10;14.80;75.10
30379;DHT22;17168;49.164;9.060;2022-11-02T00:40:42;14.50;74.60
30379;DHT22;17168;49.164;9.060;2022-11-02T00:43:14;14.30;74.50
30379;DHT22;17168;49.164;9.060;2022-11-02T00:45:46;13.90;74.50
30379;DHT22;17168;49.164;9.060;2022-11-02T00:48:17;13.60;74.90
30379;DHT22;17168;49.164;9.060;2022-11-02T00:50:50;13.40;75.50
30379;DHT22;17168;49.164;9.060;2022-11-02T00:53:23;13.10;75.90
30379;DHT22;17168;49.164;9.060;2022-11-02T00:55:54;12.90;76.40
30379;DHT22;17168;49.164;9.060;2022-11-02T00:58:26;12.60;76.80
30379;DHT22;17168;49.164;9.060;2022-11-02T01:00:57;12.40;77.50
30379;DHT22;17168;49.164;9.060;2022-11-02T01:03:29;12.20;78.00
30379;DHT22;17168;49.164;9.060;2022-11-02T01:06:07;12.10;78.40
30379;DHT22;17168;49.164;9.060;2022-11-02T01:08:39;11.90;78.90
30379;DHT22;17168;49.164;9.060;2022-11-02T01:11:11;11.80;79.70
30379;DHT22;17168;49.164;9.060;2022-11-02T01:13:43;11.60;80.50
30379;DHT22;17168;49.164;9.060;2022-11-02T01:16:15;11.50;81.40
30379;DHT22;17168;49.164;9.060;2022-11-02T01:18:49;11.40;82.00
30379;DHT22;17168;49.164;9.060;2022-11-02T01:21:22;11.40;82.90
30379;DHT22;17168;49.164;9.060;2022-11-02T01:23:54;11.30;84.00
30379;DHT22;17168;49.164;9.060;2022-11-02T01:26:26;11.30;84.90
30379;DHT22;17168;49.164;9.060;2022-11-02T01:28:57;11.30;85.70
30379;DHT22;17168;49.164;9.060;2022-11-02T01:31:29;11.20;86.20
30379;DHT22;17168;49.164;9.060;2022-11-02T01:34:01;11.20;86.60
30379;DHT22;17168;49.164;9.060;2022-11-02T01:36:33;11.20;87.00
30379;DHT22;17168;49.164;9.060;2022-11-02T01:39:05;11.20;87.40
30379;DHT22;17168;49.164;9.060;2022-11-02T01:41:37;11.10;87.50
30379;DHT22;17168;49.164;9.060;2022-11-02T01:44:24;11.10;88.00
30379;DHT22;17168;49.164;9.060;2022-11-02T01:46:58;11.10;88.50
30379;DHT22;17168;49.164;9.060;2022-11-02T01:49:31;11.10;89.00
30379;DHT22;17168;49.164;9.060;2022-11-02T01:52:05;11.10;89.60
30379;DHT22;17168;49.164;9.060;2022-11-02T01:54:38;11.10;90.10
30379;DHT22;17168;49.164;9.060;2022-11-02T01:57:12;11.00;90.60
30379;DHT22;17168;49.164;9.060;2022-11-02T01:59:46;10.90;90.50
30379;DHT22;17168;49.164;9.060;2022-11-02T02:02:19;10.90;90.90
30379;DHT22;17168;49.164;9.060;2022-11-02T02:04:52;10.90;91.20
30379;DHT22;17168;49.164;9.060;2022-11-02T02:07:26;10.90;91.40
30379;DHT22;17168;49.164;9.060;2022-11-02T02:09:59;10.90;91.40
30379;DHT22;17168;49.164;9.060;2022-11-02T02:12:30;10.90;91.50
30379;DHT22;17168;49.164;9.060;2022-11-02T02:15:03;10.90;91.60
30379;DHT22;17168;49.164;9.060;2022-11-02T02:17:38;10.90;91.70
30379;DHT22;17168;49.164;9.060;2022-11-02T02:20:15;10.90;91.90
30379;DHT22;17168;49.164;9.060;2022-11-02T02:22:59;10.90;92.10
30379;DHT22;17168;49.164;9.060;2022-11-02T02:28:22;10.90;92.60
30379;DHT22;17168;49.164;9.060;2022-11-02T02:31:02;10.90;92.60
30379;DHT22;17168;49.164;9.060;2022-11-02T02:33:38;10.90;92.70
30379;DHT22;17168;49.164;9.060;2022-11-02T02:36:14;10.90;92.70
30379;DHT22;17168;49.164;9.060;2022-11-02T02:38:52;10.90;92.80
30379;DHT22;17168;49.164;9.060;2022-11-02T02:41:29;10.90;93.00
30379;DHT22;17168;49.164;9.060;2022-11-02T02:44:03;10.90;93.30
30379;DHT22;17168;49.164;9.060;2022-11-02T02:46:36;10.90;93.60
30379;DHT22;17168;49.164;9.060;2022-11-02T02:49:14;10.90;94.00
30379;DHT22;17168;49.164;9.060;2022-11-02T02:51:48;10.80;94.40
30379;DHT22;17168;49.164;9.060;2022-11-02T02:54:20;10.90;94.60
30379;DHT22;17168;49.164;9.060;2022-11-02T02:56:54;10.90;94.70
30379;DHT22;17168;49.164;9.060;2022-11-02T02:59:28;10.90;94.60
30379;DHT22;17168;49.164;9.060;2022-11-02T03:02:03;11.00;94.60
30379;DHT22;17168;49.164;9.060;2022-11-02T03:04:35;11.00;94.60
30379;DHT22;17168;49.164;9.060;2022-11-02T03:07:07;11.00;94.80
30379;DHT22;17168;49.164;9.060;2022-11-02T03:09:41;11.00;95.30
30379;DHT22;17168;49.164;9.060;2022-11-02T03:12:17;11.00;95.40
30379;DHT22;17168;49.164;9.060;2022-11-02T03:15:00;11.00;95.70
30379;DHT22;17168;49.164;9.060;2022-11-02T03:17:35;11.00;95.90
30379;DHT22;17168;49.164;9.060;2022-11-02T03:20:13;11.00;96.10
30379;DHT22;17168;49.164;9.060;2022-11-02T03:22:50;11.00;96.20
30379;DHT22;17168;49.164;9.060;2022-11-02T03:25:25;11.10;96.30
30379;DHT22;17168;49.164;9.060;2022-11-02T03:28:01;11.10;96.30
30379;DHT22;17168;49.164;9.060;2022-11-02T03:30:38;11.10;96.20
30379;DHT22;17168;49.164;9.060;2022-11-02T03:33:15;11.10;96.10
30379;DHT22;17168;49.164;9.060;2022-11-02T03:35:50;11.10;96.20
30379;DHT22;17168;49.164;9.060;2022-11-02T03:38:23;11.10;96.20
30379;DHT22;17168;49.164;9.060;2022-11-02T03:40:55;11.10;96.10
30379;DHT22;17168;49.164;9.060;2022-11-02T03:43:27;11.10;96.10
30379;DHT22;17168;49.164;9.060;2022-11-02T03:46:02;11.10;96.10
30379;DHT22;17168;49.164;9.060;2022-11-02T03:48:35;11.10;96.20
30379;DHT22;17168;49.164;9.060;2022-11-02T03:51:09;11.10;96.30
30379;DHT22;17168;49.164;9.060;2022-11-02T03:53:43;11.10;96.50
30379;DHT22;17168;49.164;9.060;2022-11-02T03:56:16;11.10;96.20
30379;DHT22;17168;49.164;9.060;2022-11-02T03:58:49;11.10;96.50
30379;DHT22;17168;49.164;9.060;2022-11-02T04:01:22;11.10;96.90
30379;DHT22;17168;49.164;9.060;2022-11-02T04:03:55;11.10;97.20
30379;DHT22;17168;49.164;9.060;2022-11-02T04:06:27;11.20;97.40
30379;DHT22;17168;49.164;9.060;2022-11-02T04:08:58;11.20;97.50
30379;DHT22;17168;49.164;9.060;2022-11-02T04:11:30;11.20;97.70
30379;DHT22;17168;49.164;9.060;2022-11-02T04:14:21;11.20;97.80
30379;DHT22;17168;49.164;9.060;2022-11-02T04:17:10;11.30;98.00
30379;DHT22;17168;49.164;9.060;2022-11-02T04:20:01;11.30;98.00
30379;DHT22;17168;49.164;9.060;2022-11-02T04:22:33;11.30;98.00
30379;DHT22;17168;49.164;9.060;2022-11-02T04:25:23;11.30;98.10
30379;DHT22;17168;49.164;9.060;2022-11-02T04:27:55;11.30;98.10
30379;DHT22;17168;49.164;9.060;2022-11-02T04:30:26;11.30;98.10
30379;DHT22;17168;49.164;9.060;2022-11-02T04:32:59;11.30;98.30
30379;DHT22;17168;49.164;9.060;2022-11-02T04:35:50;11.30;98.10
30379;DHT22;17168;49.164;9.060;2022-11-02T04:38:21;11.30;98.10
30379;DHT22;17168;49.164;9.060;2022-11-02T04:41:12;11.30;98.20
30379;DHT22;17168;49.164;9.060;2022-11-02T04:44:03;11.20;98.20
30379;DHT22;17168;49.164;9.060;2022-11-02T04:46:35;11.20;98.30
30379;DHT22;17168;49.164;9.060;2022-11-02T04:49:08;11.20;98.50
30379;DHT22;17168;49.164;9.060;2022-11-02T04:51:40;11.20;98.70
30379;DHT22;17168;49.164;9.060;2022-11-02T04:54:19;11.20;98.60
30379;DHT22;17168;49.164;9.060;2022-11-02T04:56:50;11.20;98.80
30379;DHT22;17168;49.164;9.060;2022-11-02T04:59:22;11.20;98.80
30379;DHT22;17168;49.164;9.060;2022-11-02T05:01:54;11.20;98.90
30379;DHT22;17168;49.164;9.060;2022-11-02T05:04:27;11.20;99.00
30379;DHT22;17168;49.164;9.060;2022-11-02T05:06:58;11.20;99.20
30379;DHT22;17168;49.164;9.060;2022-11-02T05:09:32;11.20;99.20
30379;DHT22;17168;49.164;9.060;2022-11-02T05:12:04;11.30;99.30
30379;DHT22;17168;49.164;9.060;2022-11-02T05:14:35;11.30;99.40
30379;DHT22;17168;49.164;9.060;2022-11-02T05:17:07;11.30;99.40
30379;DHT22;17168;49.164;9.060;2022-11-02T05:19:40;11.30;99.50
30379;DHT22;17168;49.164;9.060;2022-11-02T05:22:12;11.30;99.60
30379;DHT22;17168;49.164;9.060;2022-11-02T05:24:43;11.30;99.60
30379;DHT22;17168;49.164;9.060;2022-11-02T05:27:15;11.30;99.70
30379;DHT22;17168;49.164;9.060;2022-11-02T05:29:47;11.30;99.80
30379;DHT22;17168;49.164;9.060;2022-11-02T05:32:18;11.30;99.90
30379;DHT22;17168;49.164;9.060;2022-11-02T05:34:51;11.30;99.90
30379;DHT22;17168;49.164;9.060;2022-11-02T05:37:23;11.40;99.90
30379;DHT22;17168;49.164;9.060;2022-11-02T05:39:55;11.40;99.90
30379;DHT22;17168;49.164;9.060;2022-11-02T05:42:26;11.40;99.90
30379;DHT22;17168;49.164;9.060;2022-11-02T05:44:58;11.40;99.90
30379;DHT22;17168;49.164;9.060;2022-11-02T05:47:29;11.50;99.90
30379;DHT22;17168;49.164;9.060;2022-11-02T05:50:03;11.50;99.90
30379;DHT22;17168;49.164;9.060;2022-11-02T05:52:34;11.50;99.90
30379;DHT22;17168;49.164;9.060;2022-11-02T05:55:06;11.60;99.90
30379;DHT22;17168;49.164;9.060;2022-11-02T05:57:38;11.70;99.90
30379;DHT22;17168;49.164;9.060;2022-11-02T06:00:11;11.70;99.90
30379;DHT22;17168;49.164;9.060;2022-11-02T06:02:42;11.80;99.90
30379;DHT22;17168;49.164;9.060;2022-11-02T06:05:16;11.80;99.90
30379;DHT22;17168;49.164;9.060;2022-11-02T06:07:47;11.90;99.90
30379;DHT22;17168;49.164;9.060;2022-11-02T06:10:19;11.90;99.90
30379;DHT22;17168;49.164;9.060;2022-11-02T06:12:54;11.90;99.90
30379;DHT22;17168;49.164;9.060;2022-11-02T06:15:27;12.00;99.90
30379;DHT22;17168;49.164;9.060;2022-11-02T06:17:58;12.00;99.90
30379;DHT22;17168;49.164;9.060;2022-11-02T06:20:32;12.00;99.90
30379;DHT22;17168;49.164;9.060;2022-11-02T06:23:04;12.10;99.90
30379;DHT22;17168;49.164;9.060;2022-11-02T06:25:36;12.10;99.90
30379;DHT22;17168;49.164;9.060;2022-11-02T06:28:08;12.20;99.90
30379;DHT22;17168;49.164;9.060;2022-11-02T06:30:41;12.20;99.90
30379;DHT22;17168;49.164;9.060;2022-11-02T06:33:12;12.20;99.90
30379;DHT22;17168;49.164;9.060;2022-11-02T06:35:47;12.20;99.90
30379;DHT22;17168;49.164;9.060;2022-11-02T06:38:20;12.20;99.90
30379;DHT22;17168;49.164;9.060;2022-11-02T06:40:53;12.20;99.90
30379;DHT22;17168;49.164;9.060;2022-11-02T06:43:25;12.20;99.90
30379;DHT22;17168;49.164;9.060;2022-11-02T06:45:57;12.30;99.90
30379;DHT22;17168;49.164;9.060;2022-11-02T06:48:30;12.30;99.90
30379;DHT22;17168;49.164;9.060;2022-11-02T06:51:07;12.40;99.90
30379;DHT22;17168;49.164;9.060;2022-11-02T06:53:39;12.40;99.90
30379;DHT22;17168;49.164;9.060;2022-11-02T06:56:11;12.50;99.90
30379;DHT22;17168;49.164;9.060;2022-11-02T06:58:43;12.50;99.90
30379;DHT22;17168;49.164;9.060;2022-11-02T07:01:15;12.60;99.90
30379;DHT22;17168;49.164;9.060;2022-11-02T07:03:47;12.60;99.90
30379;DHT22;17168;49.164;9.060;2022-11-02T07:06:20;12.60;99.90
30379;DHT22;17168;49.164;9.060;2022-11-02T07:08:53;12.70;99.90
30379;DHT22;17168;49.164;9.060;2022-11-02T07:11:24;12.70;99.90
30379;DHT22;17168;49.164;9.060;2022-11-02T07:13:56;12.70;99.90
30379;DHT22;17168;49.164;9.060;2022-11-02T07:16:28;12.70;99.90
30379;DHT22;17168;49.164;9.060;2022-11-02T07:19:00;12.80;99.90
30379;DHT22;17168;49.164;9.060;2022-11-02T07:21:33;12.80;99.90
30379;DHT22;17168;49.164;9.060;2022-11-02T07:24:05;12.80;99.90
30379;DHT22;17168;49.164;9.060;2022-11-02T07:26:37;12.90;99.90
30379;DHT22;17168;49.164;9.060;2022-11-02T07:29:09;12.90;99.90
30379;DHT22;17168;49.164;9.060;2022-11-02T07:31:41;12.90;99.90
30379;DHT22;17168;49.164;9.060;2022-11-02T07:34:13;13.00;99.90
30379;DHT22;17168;49.164;9.060;2022-11-02T07:36:49;13.00;99.90
30379;DHT22;17168;49.164;9.060;2022-11-02T07:39:21;13.00;99.90
30379;DHT22;17168;49.164;9.060;2022-11-02T07:41:52;13.10;99.90
30379;DHT22;17168;49.164;9.060;2022-11-02T07:44:24;13.10;99.90
30379;DHT22;17168;49.164;9.060;2022-11-02T07:46:56;13.10;99.90
30379;DHT22;17168;49.164;9.060;2022-11-02T07:49:28;13.10;99.90
30379;DHT22;17168;49.164;9.060;2022-11-02T07:52:01;13.10;99.90
30379;DHT22;17168;49.164;9.060;2022-11-02T07:54:33;13.20;99.90
30379;DHT22;17168;49.164;9.060;2022-11-02T07:57:04;13.20;99.90
30379;DHT22;17168;49.164;9.060;2022-11-02T07:59:36;13.20;99.90
30379;DHT22;17168;49.164;9.060;2022-11-02T08:02:10;13.30;99.90
30379;DHT22;17168;49.164;9.060;2022-11-02T08:04:43;13.30;99.90
30379;DHT22;17168;49.164;9.060;2022-11-02T08:07:17;13.30;99.90
30379;DHT22;17168;49.164;9.060;2022-11-02T08:09:49;13.40;99.90
30379;DHT22;17168;49.164;9.060;2022-11-02T08:12:20;13.40;99.90
30379;DHT22;17168;49.164;9.060;2022-11-02T08:14:52;13.40;99.90
30379;DHT22;17168;49.164;9.060;2022-11-02T08:17:24;13.40;99.90
30379;DHT22;17168;49.164;9.060;2022-11-02T08:19:56;13.40;99.90
30379;DHT22;17168;49.164;9.060;2022-11-02T08:22:30;13.50;99.90
30379;DHT22;17168;49.164;9.060;2022-11-02T08:25:02;13.50;99.90
30379;DHT22;17168;49.164;9.060;2022-11-02T08:27:33;13.50;99.90
30379;DHT22;17168;49.164;9.060;2022-11-02T08:30:06;13.50;99.90
30379;DHT22;17168;49.164;9.060;2022-11-02T08:32:38;13.60;99.90
30379;DHT22;17168;49.164;9.060;2022-11-02T08:35:10;13.60;99.90
30379;DHT22;17168;49.164;9.060;2022-11-02T08:37:43;13.70;99.90
30379;DHT22;17168;49.164;9.060;2022-11-02T08:40:15;13.70;99.90
30379;DHT22;17168;49.164;9.060;2022-11-02T08:42:46;13.70;99.90
30379;DHT22;17168;49.164;9.060;2022-11-02T08:45:18;13.70;99.90
30379;DHT22;17168;49.164;9.060;2022-11-02T08:47:50;13.70;99.90
30379;DHT22;17168;49.164;9.060;2022-11-02T08:50:22;13.70;99.90
30379;DHT22;17168;49.164;9.060;2022-11-02T08:52:56;13.80;99.90
30379;DHT22;17168;49.164;9.060;2022-11-02T08:55:28;13.80;99.90
30379;DHT22;17168;49.164;9.060;2022-11-02T08:58:00;13.80;99.90
30379;DHT22;17168;49.164;9.060;2022-11-02T09:00:33;13.80;99.90
30379;DHT22;17168;49.164;9.060;2022-11-02T09:03:06;13.80;99.90
30379;DHT22;17168;49.164;9.060;2022-11-02T09:05:40;13.80;99.90
30379;DHT22;17168;49.164;9.060;2022-11-02T09:08:15;13.80;99.90
30379;DHT22;17168;49.164;9.060;2022-11-02T09:10:49;13.90;99.90
30379;DHT22;17168;49.164;9.060;2022-11-02T09:13:21;13.90;99.90
30379;DHT22;17168;49.164;9.060;2022-11-02T09:15:57;13.90;99.90
30379;DHT22;17168;49.164;9.060;2022-11-02T09:18:30;14.00;99.90
30379;DHT22;17168;49.164;9.060;2022-11-02T09:21:03;14.00;99.90
30379;DHT22;17168;49.164;9.060;2022-11-02T09:23:37;14.00;99.90
30379;DHT22;17168;49.164;9.060;2022-11-02T09:26:08;14.10;99.90
30379;DHT22;17168;49.164;9.060;2022-11-02T09:28:40;14.10;99.90
30379;DHT22;17168;49.164;9.060;2022-11-02T09:31:12;14.10;99.90
30379;DHT22;17168;49.164;9.060;2022-11-02T09:33:44;14.10;99.90
30379;DHT22;17168;49.164;9.060;2022-11-02T09:36:16;14.20;99.90
30379;DHT22;17168;49.164;9.060;2022-11-02T09:38:49;14.20;99.90
30379;DHT22;17168;49.164;9.060;2022-11-02T09:41:22;14.20;99.90
30379;DHT22;17168;49.164;9.060;2022-11-02T09:44:02;14.20;99.90
30379;DHT22;17168;49.164;9.060;2022-11-02T09:46:37;14.20;99.90
30379;DHT22;17168;49.164;9.060;2022-11-02T09:49:14;14.20;99.90
30379;DHT22;17168;49.164;9.060;2022-11-02T09:51:48;14.20;99.90
30379;DHT22;17168;49.164;9.060;2022-11-02T09:54:26;14.20;99.90
30379;DHT22;17168;49.164;9.060;2022-11-02T09:57:04;14.20;99.90
30379;DHT22;17168;49.164;9.060;2022-11-02T09:59:36;14.20;99.90
30379;DHT22;17168;49.164;9.060;2022-11-02T10:02:17;14.20;99.90
30379;DHT22;17168;49.164;9.060;2022-11-02T10:05:07;14.30;99.90
30379;DHT22;17168;49.164;9.060;2022-11-02T10:07:57;14.30;99.90
30379;DHT22;17168;49.164;9.060;2022-11-02T10:10:36;14.30;99.90
30379;DHT22;17168;49.164;9.060;2022-11-02T10:13:18;14.30;99.90
30379;DHT22;17168;49.164;9.060;2022-11-02T10:15:54;14.30;99.90
30379;DHT22;17168;49.164;9.060;2022-11-02T10:18:28;14.40;99.90
30379;DHT22;17168;49.164;9.060;2022-11-02T10:21:05;14.40;99.90
30379;DHT22;17168;49.164;9.060;2022-11-02T10:23:40;14.50;99.90
30379;DHT22;17168;49.164;9.060;2022-11-02T10:26:17;14.50;99.90
30379;DHT22;17168;49.164;9.060;2022-11-02T10:28:55;14.50;99.90
30379;DHT22;17168;49.164;9.060;2022-11-02T10:31:30;14.60;99.90
30379;DHT22;17168;49.164;9.060;2022-11-02T10:34:13;14.60;99.90
30379;DHT22;17168;49.164;9.060;2022-11-02T10:36:55;14.70;99.90
30379;DHT22;17168;49.164;9.060;2022-11-02T10:39:39;14.70;99.80
30379;DHT22;17168;49.164;9.060;2022-11-02T10:42:32;14.60;99.60
30379;DHT22;17168;49.164;9.060;2022-11-02T10:45:17;14.60;99.30
30379;DHT22;17168;49.164;9.060;2022-11-02T10:48:00;14.60;99.20
30379;DHT22;17168;49.164;9.060;2022-11-02T10:50:45;14.60;99.00
30379;DHT22;17168;49.164;9.060;2022-11-02T10:53:19;14.60;99.10
30379;DHT22;17168;49.164;9.060;2022-11-02T10:56:15;14.70;99.10
30379;DHT22;17168;49.164;9.060;2022-11-02T10:58:54;14.70;99.00
30379;DHT22;17168;49.164;9.060;2022-11-02T11:01:30;14.70;98.90
30379;DHT22;17168;49.164;9.060;2022-11-02T11:04:04;14.70;98.50
30379;DHT22;17168;49.164;9.060;2022-11-02T11:06:38;14.80;97.80
30379;DHT22;17168;49.164;9.060;2022-11-02T11:09:16;14.80;97.10
30379;DHT22;17168;49.164;9.060;2022-11-02T11:11:53;14.90;96.90
30379;DHT22;17168;49.164;9.060;2022-11-02T11:14:28;15.00;96.20
30379;DHT22;17168;49.164;9.060;2022-11-02T11:17:25;15.00;95.30
30379;DHT22;17168;49.164;9.060;2022-11-02T11:20:29;15.10;95.30
30379;DHT22;17168;49.164;9.060;2022-11-02T11:23:16;15.30;94.80
30379;DHT22;17168;49.164;9.060;2022-11-02T11:25:57;15.40;94.10
30379;DHT22;17168;49.164;9.060;2022-11-02T11:28:31;15.60;94.20
30379;DHT22;17168;49.164;9.060;2022-11-02T11:31:11;15.80;92.30
30379;DHT22;17168;49.164;9.060;2022-11-02T11:33:46;15.90;90.10
30379;DHT22;17168;49.164;9.060;2022-11-02T11:36:25;16.20;89.60
30379;DHT22;17168;49.164;9.060;2022-11-02T11:39:01;16.50;89.50
30379;DHT22;17168;49.164;9.060;2022-11-02T11:41:34;16.80;88.20
30379;DHT22;17168;49.164;9.060;2022-11-02T11:44:12;17.00;84.80
30379;DHT22;17168;49.164;9.060;2022-11-02T11:46:47;17.10;84.40
30379;DHT22;17168;49.164;9.060;2022-11-02T11:49:22;17.30;82.20
30379;DHT22;17168;49.164;9.060;2022-11-02T11:52:19;17.40;81.10
30379;DHT22;17168;49.164;9.060;2022-11-02T11:54:56;17.70;80.60
30379;DHT22;17168;49.164;9.060;2022-11-02T11:57:30;17.90;78.00
30379;DHT22;17168;49.164;9.060;2022-11-02T12:00:25;18.10;76.10
30379;DHT22;17168;49.164;9.060;2022-11-02T12:03:02;18.30;74.50
30379;DHT22;17168;49.164;9.060;2022-11-02T12:05:46;18.70;73.60
30379;DHT22;17168;49.164;9.060;2022-11-02T12:08:31;18.90;71.50
30379;DHT22;17168;49.164;9.060;2022-11-02T12:11:20;19.20;70.20
30379;DHT22;17168;49.164;9.060;2022-11-02T12:14:06;19.50;68.40
30379;DHT22;17168;49.164;9.060;2022-11-02T12:16:56;19.60;66.80
30379;DHT22;17168;49.164;9.060;2022-11-02T12:19:44;19.80;65.80
30379;DHT22;17168;49.164;9.060;2022-11-02T12:22:28;19.90;64.90
30379;DHT22;17168;49.164;9.060;2022-11-02T12:25:14;20.00;64.40
30379;DHT22;17168;49.164;9.060;2022-11-02T12:27:56;20.10;63.40
30379;DHT22;17168;49.164;9.060;2022-11-02T12:30:30;20.20;63.30
30379;DHT22;17168;49.164;9.060;2022-11-02T12:33:15;20.40;63.80
30379;DHT22;17168;49.164;9.060;2022-11-02T12:35:55;20.60;64.10
30379;DHT22;17168;49.164;9.060;2022-11-02T12:38:59;20.80;63.10
30379;DHT22;17168;49.164;9.060;2022-11-02T12:41:47;20.90;63.00
30379;DHT22;17168;49.164;9.060;2022-11-02T12:44:50;21.00;61.90
30379;DHT22;17168;49.164;9.060;2022-11-02T12:47:32;21.00;60.70
30379;DHT22;17168;49.164;9.060;2022-11-02T12:50:14;21.00;61.00
30379;DHT22;17168;49.164;9.060;2022-11-02T12:52:58;21.20;61.40
30379;DHT22;17168;49.164;9.060;2022-11-02T12:55:36;21.40;61.50
30379;DHT22;17168;49.164;9.060;2022-11-02T12:58:16;21.60;62.10
30379;DHT22;17168;49.164;9.060;2022-11-02T13:00:54;21.80;61.20
30379;DHT22;17168;49.164;9.060;2022-11-02T13:03:33;22.00;60.10
30379;DHT22;17168;49.164;9.060;2022-11-02T13:06:12;21.90;59.10
30379;DHT22;17168;49.164;9.060;2022-11-02T13:08:49;22.10;58.10
30379;DHT22;17168;49.164;9.060;2022-11-02T13:11:27;21.90;57.30
30379;DHT22;17168;49.164;9.060;2022-11-02T13:14:03;22.00;57.70
30379;DHT22;17168;49.164;9.060;2022-11-02T13:16:40;22.10;57.20
30379;DHT22;17168;49.164;9.060;2022-11-02T13:19:17;22.00;56.60
30379;DHT22;17168;49.164;9.060;2022-11-02T13:21:53;22.10;56.60
30379;DHT22;17168;49.164;9.060;2022-11-02T13:24:30;22.00;56.50
30379;DHT22;17168;49.164;9.060;2022-11-02T13:27:05;22.10;56.70
30379;DHT22;17168;49.164;9.060;2022-11-02T13:29:58;22.00;56.20
30379;DHT22;17168;49.164;9.060;2022-11-02T13:32:34;21.80;56.60
30379;DHT22;17168;49.164;9.060;2022-11-02T13:35:15;21.70;56.20
30379;DHT22;17168;49.164;9.060;2022-11-02T13:40:20;21.60;56.30
30379;DHT22;17168;49.164;9.060;2022-11-02T13:46:20;21.80;56.60
30379;DHT22;17168;49.164;9.060;2022-11-02T13:48:58;21.90;56.00
30379;DHT22;17168;49.164;9.060;2022-11-02T13:51:36;21.80;55.30
30379;DHT22;17168;49.164;9.060;2022-11-02T13:54:13;21.70;55.30
30379;DHT22;17168;49.164;9.060;2022-11-02T13:56:50;21.60;55.10
30379;DHT22;17168;49.164;9.060;2022-11-02T13:59:26;21.60;55.10
30379;DHT22;17168;49.164;9.060;2022-11-02T14:04:45;21.60;55.70
30379;DHT22;17168;49.164;9.060;2022-11-02T14:07:22;21.50;56.10
30379;DHT22;17168;49.164;9.060;2022-11-02T14:09:57;21.50;56.10
30379;DHT22;17168;49.164;9.060;2022-11-02T14:12:46;21.50;55.90
30379;DHT22;17168;49.164;9.060;2022-11-02T14:15:50;21.60;56.00
30379;DHT22;17168;49.164;9.060;2022-11-02T14:18:27;21.40;56.10
30379;DHT22;17168;49.164;9.060;2022-11-02T14:27:27;20.80;57.00
30379;DHT22;17168;49.164;9.060;2022-11-02T14:30:00;20.60;57.50
30379;DHT22;17168;49.164;9.060;2022-11-02T14:32:44;20.40;57.80
30379;DHT22;17168;49.164;9.060;2022-11-02T14:35:41;20.20;58.00
30379;DHT22;17168;49.164;9.060;2022-11-02T14:38:23;19.90;58.20
30379;DHT22;17168;49.164;9.060;2022-11-02T14:41:07;19.70;58.50
30379;DHT22;17168;49.164;9.060;2022-11-02T14:44:02;19.60;58.80
30379;DHT22;17168;49.164;9.060;2022-11-02T14:46:52;19.40;58.90
30379;DHT22;17168;49.164;9.060;2022-11-02T14:49:29;19.30;59.10
30379;DHT22;17168;49.164;9.060;2022-11-02T14:52:05;19.10;59.30
30379;DHT22;17168;49.164;9.060;2022-11-02T14:54:45;19.00;59.60
30379;DHT22;17168;49.164;9.060;2022-11-02T14:57:22;18.80;59.70
30379;DHT22;17168;49.164;9.060;2022-11-02T14:59:57;18.70;59.90
30379;DHT22;17168;49.164;9.060;2022-11-02T15:02:33;18.60;60.20
30379;DHT22;17168;49.164;9.060;2022-11-02T15:05:21;18.50;60.40
30379;DHT22;17168;49.164;9.060;2022-11-02T15:07:56;18.50;60.60
30379;DHT22;17168;49.164;9.060;2022-11-02T15:10:47;18.40;60.80
30379;DHT22;17168;49.164;9.060;2022-11-02T15:13:44;18.30;61.00
30379;DHT22;17168;49.164;9.060;2022-11-02T15:16:22;18.20;61.10
30379;DHT22;17168;49.164;9.060;2022-11-02T15:22:31;18.10;61.40
30379;DHT22;17168;49.164;9.060;2022-11-02T15:25:10;18.00;61.70
30379;DHT22;17168;49.164;9.060;2022-11-02T15:27:44;17.90;61.90
30379;DHT22;17168;49.164;9.060;2022-11-02T15:30:19;17.90;62.10
30379;DHT22;17168;49.164;9.060;2022-11-02T15:33:01;17.90;62.80
30379;DHT22;17168;49.164;9.060;2022-11-02T15:35:36;17.90;62.70
30379;DHT22;17168;49.164;9.060;2022-11-02T15:38:11;17.80;62.70
30379;DHT22;17168;49.164;9.060;2022-11-02T15:40:53;17.70;62.60
30379;DHT22;17168;49.164;9.060;2022-11-02T15:43:52;17.60;62.60
30379;DHT22;17168;49.164;9.060;2022-11-02T15:46:36;17.60;62.80
30379;DHT22;17168;49.164;9.060;2022-11-02T15:49:14;17.50;63.10
30379;DHT22;17168;49.164;9.060;2022-11-02T15:51:58;17.30;63.00
30379;DHT22;17168;49.164;9.060;2022-11-02T15:54:46;17.20;63.30
30379;DHT22;17168;49.164;9.060;2022-11-02T15:57:27;17.10;63.40
30379;DHT22;17168;49.164;9.060;2022-11-02T16:00:09;16.90;63.40
30379;DHT22;17168;49.164;9.060;2022-11-02T16:02:45;16.80;63.70
30379;DHT22;17168;49.164;9.060;2022-11-02T16:05:21;16.60;64.10
30379;DHT22;17168;49.164;9.060;2022-11-02T16:07:56;16.50;64.30
30379;DHT22;17168;49.164;9.060;2022-11-02T16:10:41;16.30;64.50
30379;DHT22;17168;49.164;9.060;2022-11-02T16:13:15;16.20;64.70
30379;DHT22;17168;49.164;9.060;2022-11-02T16:18:38;16.00;64.70
30379;DHT22;17168;49.164;9.060;2022-11-02T16:21:12;15.90;65.20
30379;DHT22;17168;49.164;9.060;2022-11-02T16:23:48;15.80;65.30
30379;DHT22;17168;49.164;9.060;2022-11-02T16:26:22;15.60;65.30
30379;DHT22;17168;49.164;9.060;2022-11-02T16:28:57;15.60;65.50
30379;DHT22;17168;49.164;9.060;2022-11-02T16:31:30;15.40;65.50
30379;DHT22;17168;49.164;9.060;2022-11-02T16:34:20;15.30;65.80
30379;DHT22;17168;49.164;9.060;2022-11-02T16:36:52;15.10;66.00
30379;DHT22;17168;49.164;9.060;2022-11-02T16:39:27;15.00;66.20
30379;DHT22;17168;49.164;9.060;2022-11-02T16:42:05;14.90;66.40
30379;DHT22;17168;49.164;9.060;2022-11-02T16:44:38;14.80;66.60
30379;DHT22;17168;49.164;9.060;2022-11-02T16:47:16;14.70;66.80
30379;DHT22;17168;49.164;9.060;2022-11-02T16:49:58;14.60;67.20
30379;DHT22;17168;49.164;9.060;2022-11-02T16:52:30;14.50;67.50